sensor_id;sensor_type;location;lat;lon;timestamp;P1;P2;P0
73825;PMS5003;64145;55.060;73.168;2023-04-15T00:02:22;2.00;0.00;0.00
73825;PMS5003;64145;55.060;73.168;2023-04-15T00:04:52;0.25;0.00;0.00
73825;PMS5003;64145;55.060;73.168;2023-04-15T00:07:18;0.00;0.00;0.00
73825;PMS5003;64145;55.060;73.168;2023-04-15T00:09:43;0.00;0.00;0.00
73825;PMS5003;64145;55.060;73.168;2023-04-15T00:12:27;0.00;0.00;0.00
73825;PMS5003;64145;55.060;73.168;2023-04-15T00:14:53;0.00;0.00;0.00
73825;PMS5003;64145;55.060;73.168;2023-04-15T00:17:23;0.00;0.00;0.00
73825;PMS5003;64145;55.060;73.168;2023-04-15T00:19:49;0.00;0.00;0.00
73825;PMS5003;64145;55.060;73.168;2023-04-15T00:22:33;0.00;0.00;0.00
73825;PMS5003;64145;55.060;73.168;2023-04-15T00:24:58;0.00;0.00;0.00
73825;PMS5003;64145;55.060;73.168;2023-04-15T00:27:24;0.00;0.00;0.00
73825;PMS5003;64145;55.060;73.168;2023-04-15T00:29:49;0.00;0.00;0.00
73825;PMS5003;64145;55.060;73.168;2023-04-15T00:32:15;0.00;0.00;0.00
73825;PMS5003;64145;55.060;73.168;2023-04-15T00:34:46;0.00;0.00;0.00
73825;PMS5003;64145;55.060;73.168;2023-04-15T00:37:11;0.00;0.00;0.00
73825;PMS5003;64145;55.060;73.168;2023-04-15T00:39:55;0.00;0.00;0.00
73825;PMS5003;64145;55.060;73.168;2023-04-15T00:42:21;0.00;0.00;0.00
73825;PMS5003;64145;55.060;73.168;2023-04-15T00:44:47;0.00;0.00;0.00
73825;PMS5003;64145;55.060;73.168;2023-04-15T00:47:12;0.00;0.00;0.00
73825;PMS5003;64145;55.060;73.168;2023-04-15T00:49:39;0.00;0.00;0.00
73825;PMS5003;64145;55.060;73.168;2023-04-15T00:52:05;0.00;0.00;0.00
73825;PMS5003;64145;55.060;73.168;2023-04-15T00:54:30;0.00;0.00;0.00
73825;PMS5003;64145;55.060;73.168;2023-04-15T00:56:56;0.00;0.00;0.00
73825;PMS5003;64145;55.060;73.168;2023-04-15T00:59:22;0.00;0.00;0.00
73825;PMS5003;64145;55.060;73.168;2023-04-15T01:01:48;0.00;0.00;0.00
73825;PMS5003;64145;55.060;73.168;2023-04-15T01:04:14;0.00;0.00;0.00
73825;PMS5003;64145;55.060;73.168;2023-04-15T01:06:40;0.00;0.00;0.00
73825;PMS5003;64145;55.060;73.168;2023-04-15T01:12:14;0.00;0.00;0.00
73825;PMS5003;64145;55.060;73.168;2023-04-15T01:14:41;0.00;0.00;0.00
73825;PMS5003;64145;55.060;73.168;2023-04-15T01:17:25;0.00;0.00;0.00
73825;PMS5003;64145;55.060;73.168;2023-04-15T01:19:50;0.00;0.00;0.00
73825;PMS5003;64145;55.060;73.168;2023-04-15T01:22:21;0.00;0.00;0.00
73825;PMS5003;64145;55.060;73.168;2023-04-15T01:25:09;0.00;0.00;0.00
73825;PMS5003;64145;55.060;73.168;2023-04-15T01:27:33;0.00;0.00;0.00
73825;PMS5003;64145;55.060;73.168;2023-04-15T01:32:55;0.00;0.00;0.00
73825;PMS5003;64145;55.060;73.168;2023-04-15T01:35:21;0.00;0.00;0.00
73825;PMS5003;64145;55.060;73.168;2023-04-15T01:37:46;0.00;0.00;0.00
73825;PMS5003;64145;55.060;73.168;2023-04-15T01:42:56;0.00;0.00;0.00
73825;PMS5003;64145;55.060;73.168;2023-04-15T01:45:22;0.00;0.00;0.00
73825;PMS5003;64145;55.060;73.168;2023-04-15T01:47:48;0.00;0.00;0.00
73825;PMS5003;64145;55.060;73.168;2023-04-15T01:50:14;0.00;0.00;0.00
73825;PMS5003;64145;55.060;73.168;2023-04-15T01:52:40;0.00;0.00;0.00
73825;PMS5003;64145;55.060;73.168;2023-04-15T01:55:06;0.00;0.00;0.00
73825;PMS5003;64145;55.060;73.168;2023-04-15T01:57:32;0.00;0.00;0.00
73825;PMS5003;64145;55.060;73.168;2023-04-15T02:02:42;0.00;0.00;0.00
73825;PMS5003;64145;55.060;73.168;2023-04-15T02:07:52;0.00;0.00;0.00
73825;PMS5003;64145;55.060;73.168;2023-04-15T02:10:18;0.00;0.00;0.00
73825;PMS5003;64145;55.060;73.168;2023-04-15T02:12:44;0.00;0.00;0.00
73825;PMS5003;64145;55.060;73.168;2023-04-15T02:15:14;0.00;0.00;0.00
73825;PMS5003;64145;55.060;73.168;2023-04-15T02:17:39;0.00;0.00;0.00
73825;PMS5003;64145;55.060;73.168;2023-04-15T02:20:07;0.00;0.00;0.00
73825;PMS5003;64145;55.060;73.168;2023-04-15T02:22:33;0.00;0.00;0.00
73825;PMS5003;64145;55.060;73.168;2023-04-15T02:27:42;3.00;2.00;0.00
73825;PMS5003;64145;55.060;73.168;2023-04-15T02:33:02;0.00;0.00;0.00
73825;PMS5003;64145;55.060;73.168;2023-04-15T02:35:28;0.00;0.00;0.00
73825;PMS5003;64145;55.060;73.168;2023-04-15T02:37:54;0.00;0.00;0.00
73825;PMS5003;64145;55.060;73.168;2023-04-15T02:40:19;0.00;0.00;0.00
73825;PMS5003;64145;55.060;73.168;2023-04-15T02:42:45;0.00;0.00;0.00
73825;PMS5003;64145;55.060;73.168;2023-04-15T02:45:11;0.00;0.00;0.00
73825;PMS5003;64145;55.060;73.168;2023-04-15T02:50:21;4.00;2.75;0.00
73825;PMS5003;64145;55.060;73.168;2023-04-15T02:55:31;2.00;1.75;0.00
73825;PMS5003;64145;55.060;73.168;2023-04-15T02:57:57;1.33;0.00;0.00
73825;PMS5003;64145;55.060;73.168;2023-04-15T03:00:41;0.00;0.00;0.00
73825;PMS5003;64145;55.060;73.168;2023-04-15T03:03:06;0.00;0.00;0.00
73825;PMS5003;64145;55.060;73.168;2023-04-15T03:05:32;0.00;0.00;0.00
73825;PMS5003;64145;55.060;73.168;2023-04-15T03:07:57;0.00;0.00;0.00
73825;PMS5003;64145;55.060;73.168;2023-04-15T03:10:24;0.00;0.00;0.00
73825;PMS5003;64145;55.060;73.168;2023-04-15T03:13:08;0.00;0.00;0.00
73825;PMS5003;64145;55.060;73.168;2023-04-15T03:15:34;0.00;0.00;0.00
73825;PMS5003;64145;55.060;73.168;2023-04-15T03:18:05;0.00;0.00;0.00
73825;PMS5003;64145;55.060;73.168;2023-04-15T03:20:40;0.00;0.00;0.00
73825;PMS5003;64145;55.060;73.168;2023-04-15T03:23:06;0.00;0.00;0.00
73825;PMS5003;64145;55.060;73.168;2023-04-15T03:28:58;0.00;0.00;0.00
73825;PMS5003;64145;55.060;73.168;2023-04-15T03:31:23;0.00;0.00;0.00
73825;PMS5003;64145;55.060;73.168;2023-04-15T03:33:49;0.00;0.00;0.00
73825;PMS5003;64145;55.060;73.168;2023-04-15T03:36:14;0.00;0.00;0.00
73825;PMS5003;64145;55.060;73.168;2023-04-15T03:38:41;0.00;0.00;0.00
73825;PMS5003;64145;55.060;73.168;2023-04-15T03:41:06;0.00;0.00;0.00
73825;PMS5003;64145;55.060;73.168;2023-04-15T03:43:42;0.00;0.00;0.00
73825;PMS5003;64145;55.060;73.168;2023-04-15T03:46:08;5.67;3.33;0.00
73825;PMS5003;64145;55.060;73.168;2023-04-15T03:48:34;0.00;0.00;0.00
73825;PMS5003;64145;55.060;73.168;2023-04-15T03:51:10;2.50;0.50;0.00
73825;PMS5003;64145;55.060;73.168;2023-04-15T03:53:35;2.33;0.00;0.00
73825;PMS5003;64145;55.060;73.168;2023-04-15T03:56:01;1.00;0.00;0.00
73825;PMS5003;64145;55.060;73.168;2023-04-15T04:01:21;0.00;0.00;0.00
73825;PMS5003;64145;55.060;73.168;2023-04-15T04:03:52;0.00;0.00;0.00
73825;PMS5003;64145;55.060;73.168;2023-04-15T04:06:35;0.00;0.00;0.00
73825;PMS5003;64145;55.060;73.168;2023-04-15T04:09:01;0.67;0.00;0.00
73825;PMS5003;64145;55.060;73.168;2023-04-15T04:11:27;0.00;0.00;0.00
73825;PMS5003;64145;55.060;73.168;2023-04-15T04:13:52;0.00;0.00;0.00
73825;PMS5003;64145;55.060;73.168;2023-04-15T04:16:18;0.00;0.00;0.00
73825;PMS5003;64145;55.060;73.168;2023-04-15T04:18:53;3.75;2.75;0.00
73825;PMS5003;64145;55.060;73.168;2023-04-15T04:21:19;0.00;0.00;0.00
73825;PMS5003;64145;55.060;73.168;2023-04-15T04:23:45;0.75;0.00;0.00
73825;PMS5003;64145;55.060;73.168;2023-04-15T04:26:11;3.67;0.00;0.00
73825;PMS5003;64145;55.060;73.168;2023-04-15T04:28:36;0.00;0.00;0.00
73825;PMS5003;64145;55.060;73.168;2023-04-15T04:31:07;0.00;0.00;0.00
73825;PMS5003;64145;55.060;73.168;2023-04-15T04:33:32;4.00;4.00;0.00
73825;PMS5003;64145;55.060;73.168;2023-04-15T04:38:42;1.00;0.00;0.00
73825;PMS5003;64145;55.060;73.168;2023-04-15T04:41:08;0.00;0.00;0.00
73825;PMS5003;64145;55.060;73.168;2023-04-15T04:43:33;0.00;0.00;0.00
73825;PMS5003;64145;55.060;73.168;2023-04-15T04:45:59;2.33;1.33;0.00
73825;PMS5003;64145;55.060;73.168;2023-04-15T04:48:30;0.00;0.00;0.00
73825;PMS5003;64145;55.060;73.168;2023-04-15T04:50:56;0.00;0.00;0.00
73825;PMS5003;64145;55.060;73.168;2023-04-15T04:53:21;1.67;0.67;0.00
73825;PMS5003;64145;55.060;73.168;2023-04-15T04:55:47;2.00;2.00;0.00
73825;PMS5003;64145;55.060;73.168;2023-04-15T04:58:12;0.00;0.00;0.00
73825;PMS5003;64145;55.060;73.168;2023-04-15T05:00:39;0.00;0.00;0.00
73825;PMS5003;64145;55.060;73.168;2023-04-15T05:05:49;0.00;0.00;0.00
73825;PMS5003;64145;55.060;73.168;2023-04-15T05:08:43;0.00;0.00;0.00
73825;PMS5003;64145;55.060;73.168;2023-04-15T05:11:09;0.00;0.00;0.00
73825;PMS5003;64145;55.060;73.168;2023-04-15T05:13:36;0.00;0.00;0.00
73825;PMS5003;64145;55.060;73.168;2023-04-15T05:16:05;0.75;0.00;0.00
73825;PMS5003;64145;55.060;73.168;2023-04-15T05:18:31;1.00;0.75;0.00
73825;PMS5003;64145;55.060;73.168;2023-04-15T05:21:07;3.00;2.00;0.00
73825;PMS5003;64145;55.060;73.168;2023-04-15T05:23:33;0.00;0.00;0.00
73825;PMS5003;64145;55.060;73.168;2023-04-15T05:25:58;0.00;0.00;0.00
73825;PMS5003;64145;55.060;73.168;2023-04-15T05:28:24;2.33;1.67;0.00
73825;PMS5003;64145;55.060;73.168;2023-04-15T05:30:49;0.00;0.00;0.00
73825;PMS5003;64145;55.060;73.168;2023-04-15T05:33:15;0.00;0.00;0.00
73825;PMS5003;64145;55.060;73.168;2023-04-15T05:35:41;0.00;0.00;0.00
73825;PMS5003;64145;55.060;73.168;2023-04-15T05:38:36;0.00;0.00;0.00
73825;PMS5003;64145;55.060;73.168;2023-04-15T05:41:01;0.00;0.00;0.00
73825;PMS5003;64145;55.060;73.168;2023-04-15T05:43:27;0.00;0.00;0.00
73825;PMS5003;64145;55.060;73.168;2023-04-15T05:45:57;0.00;0.00;0.00
73825;PMS5003;64145;55.060;73.168;2023-04-15T05:48:41;0.00;0.00;0.00
73825;PMS5003;64145;55.060;73.168;2023-04-15T05:51:11;0.00;0.00;0.00
73825;PMS5003;64145;55.060;73.168;2023-04-15T05:56:25;0.00;0.00;0.00
73825;PMS5003;64145;55.060;73.168;2023-04-15T05:58:51;0.00;0.00;0.00
73825;PMS5003;64145;55.060;73.168;2023-04-15T06:01:16;0.00;0.00;0.00
73825;PMS5003;64145;55.060;73.168;2023-04-15T06:03:49;0.00;0.00;0.00
73825;PMS5003;64145;55.060;73.168;2023-04-15T06:06:15;0.00;0.00;0.00
73825;PMS5003;64145;55.060;73.168;2023-04-15T06:08:59;0.00;0.00;0.00
73825;PMS5003;64145;55.060;73.168;2023-04-15T06:11:24;0.00;0.00;0.00
73825;PMS5003;64145;55.060;73.168;2023-04-15T06:13:50;0.00;0.00;0.00
73825;PMS5003;64145;55.060;73.168;2023-04-15T06:16:16;2.00;0.00;0.00
73825;PMS5003;64145;55.060;73.168;2023-04-15T06:18:42;1.00;0.00;0.00
73825;PMS5003;64145;55.060;73.168;2023-04-15T06:21:07;0.00;0.00;0.00
73825;PMS5003;64145;55.060;73.168;2023-04-15T06:26:17;0.00;0.00;0.00
73825;PMS5003;64145;55.060;73.168;2023-04-15T06:28:42;0.00;0.00;0.00
73825;PMS5003;64145;55.060;73.168;2023-04-15T06:31:08;0.00;0.00;0.00
73825;PMS5003;64145;55.060;73.168;2023-04-15T06:36:22;0.00;0.00;0.00
73825;PMS5003;64145;55.060;73.168;2023-04-15T06:38:48;2.67;2.00;0.00
73825;PMS5003;64145;55.060;73.168;2023-04-15T06:41:16;0.25;0.25;0.00
73825;PMS5003;64145;55.060;73.168;2023-04-15T06:46:45;0.00;0.00;0.00
73825;PMS5003;64145;55.060;73.168;2023-04-15T06:52:04;0.00;0.00;0.00
73825;PMS5003;64145;55.060;73.168;2023-04-15T06:54:30;0.00;0.00;0.00
73825;PMS5003;64145;55.060;73.168;2023-04-15T06:56:56;0.00;0.00;0.00
73825;PMS5003;64145;55.060;73.168;2023-04-15T06:59:21;0.00;0.00;0.00
73825;PMS5003;64145;55.060;73.168;2023-04-15T07:01:57;0.00;0.00;0.00
73825;PMS5003;64145;55.060;73.168;2023-04-15T07:04:22;0.00;0.00;0.00
73825;PMS5003;64145;55.060;73.168;2023-04-15T07:06:48;0.00;0.00;0.00
73825;PMS5003;64145;55.060;73.168;2023-04-15T07:09:38;7.50;5.25;1.75
73825;PMS5003;64145;55.060;73.168;2023-04-15T07:12:03;4.00;3.00;1.00
73825;PMS5003;64145;55.060;73.168;2023-04-15T07:14:29;4.33;4.33;1.00
73825;PMS5003;64145;55.060;73.168;2023-04-15T07:22:29;0.00;0.00;0.00
73825;PMS5003;64145;55.060;73.168;2023-04-15T07:24:55;0.00;0.00;0.00
73825;PMS5003;64145;55.060;73.168;2023-04-15T07:27:39;0.00;0.00;0.00
73825;PMS5003;64145;55.060;73.168;2023-04-15T07:30:05;0.00;0.00;0.00
73825;PMS5003;64145;55.060;73.168;2023-04-15T07:32:30;0.00;0.00;0.00
73825;PMS5003;64145;55.060;73.168;2023-04-15T07:35:14;0.00;0.00;0.00
73825;PMS5003;64145;55.060;73.168;2023-04-15T07:37:40;0.00;0.00;0.00
73825;PMS5003;64145;55.060;73.168;2023-04-15T07:40:07;0.00;0.00;0.00
73825;PMS5003;64145;55.060;73.168;2023-04-15T07:42:33;0.00;0.00;0.00
73825;PMS5003;64145;55.060;73.168;2023-04-15T07:44:59;0.00;0.00;0.00
73825;PMS5003;64145;55.060;73.168;2023-04-15T07:47:25;0.00;0.00;0.00
73825;PMS5003;64145;55.060;73.168;2023-04-15T07:49:51;0.00;0.00;0.00
73825;PMS5003;64145;55.060;73.168;2023-04-15T07:52:17;0.00;0.00;0.00
73825;PMS5003;64145;55.060;73.168;2023-04-15T07:54:42;0.00;0.00;0.00
73825;PMS5003;64145;55.060;73.168;2023-04-15T07:57:08;0.00;0.00;0.00
73825;PMS5003;64145;55.060;73.168;2023-04-15T07:59:33;0.00;0.00;0.00
73825;PMS5003;64145;55.060;73.168;2023-04-15T08:01:59;0.00;0.00;0.00
73825;PMS5003;64145;55.060;73.168;2023-04-15T08:04:24;0.00;0.00;0.00
73825;PMS5003;64145;55.060;73.168;2023-04-15T08:06:50;0.00;0.00;0.00
73825;PMS5003;64145;55.060;73.168;2023-04-15T08:09:21;0.00;0.00;0.00
73825;PMS5003;64145;55.060;73.168;2023-04-15T08:11:50;0.00;0.00;0.00
73825;PMS5003;64145;55.060;73.168;2023-04-15T08:14:15;0.00;0.00;0.00
73825;PMS5003;64145;55.060;73.168;2023-04-15T08:16:59;0.00;0.00;0.00
73825;PMS5003;64145;55.060;73.168;2023-04-15T08:19:25;7.33;4.67;0.00
73825;PMS5003;64145;55.060;73.168;2023-04-15T08:21:50;5.33;4.67;0.00
73825;PMS5003;64145;55.060;73.168;2023-04-15T08:24:16;1.00;0.00;0.00
73825;PMS5003;64145;55.060;73.168;2023-04-15T08:26:41;0.00;0.00;0.00
73825;PMS5003;64145;55.060;73.168;2023-04-15T08:29:07;0.00;0.00;0.00
73825;PMS5003;64145;55.060;73.168;2023-04-15T08:31:33;0.00;0.00;0.00
73825;PMS5003;64145;55.060;73.168;2023-04-15T08:37:16;0.00;0.00;0.00
73825;PMS5003;64145;55.060;73.168;2023-04-15T08:42:35;0.00;0.00;0.00
73825;PMS5003;64145;55.060;73.168;2023-04-15T08:45:03;0.00;0.00;0.00
73825;PMS5003;64145;55.060;73.168;2023-04-15T08:47:39;0.00;0.00;0.00
73825;PMS5003;64145;55.060;73.168;2023-04-15T08:50:05;0.00;0.00;0.00
73825;PMS5003;64145;55.060;73.168;2023-04-15T08:52:33;0.00;0.00;0.00
73825;PMS5003;64145;55.060;73.168;2023-04-15T08:54:58;0.00;0.00;0.00
73825;PMS5003;64145;55.060;73.168;2023-04-15T08:57:27;0.00;0.00;0.00
73825;PMS5003;64145;55.060;73.168;2023-04-15T08:59:54;0.00;0.00;0.00
73825;PMS5003;64145;55.060;73.168;2023-04-15T09:02:21;0.00;0.00;0.00
73825;PMS5003;64145;55.060;73.168;2023-04-15T09:04:47;0.00;0.00;0.00
73825;PMS5003;64145;55.060;73.168;2023-04-15T09:07:13;0.00;0.00;0.00
73825;PMS5003;64145;55.060;73.168;2023-04-15T09:12:29;0.00;0.00;0.00
73825;PMS5003;64145;55.060;73.168;2023-04-15T09:14:55;0.00;0.00;0.00
73825;PMS5003;64145;55.060;73.168;2023-04-15T09:17:21;0.00;0.00;0.00
73825;PMS5003;64145;55.060;73.168;2023-04-15T09:19:48;0.00;0.00;0.00
73825;PMS5003;64145;55.060;73.168;2023-04-15T09:30:24;0.00;0.00;0.00
73825;PMS5003;64145;55.060;73.168;2023-04-15T09:32:57;0.00;0.00;0.00
73825;PMS5003;64145;55.060;73.168;2023-04-15T09:35:23;0.00;0.00;0.00
73825;PMS5003;64145;55.060;73.168;2023-04-15T09:38:14;0.00;0.00;0.00
73825;PMS5003;64145;55.060;73.168;2023-04-15T09:40:40;0.00;0.00;0.00
73825;PMS5003;64145;55.060;73.168;2023-04-15T09:43:37;0.00;0.00;0.00
73825;PMS5003;64145;55.060;73.168;2023-04-15T09:46:05;7.50;7.50;4.75
73825;PMS5003;64145;55.060;73.168;2023-04-15T09:51:15;12.25;11.25;7.00
73825;PMS5003;64145;55.060;73.168;2023-04-15T09:53:42;0.25;0.00;0.00
73825;PMS5003;64145;55.060;73.168;2023-04-15T09:56:08;3.33;3.33;0.00
73825;PMS5003;64145;55.060;73.168;2023-04-15T09:58:34;7.00;4.75;0.00
73825;PMS5003;64145;55.060;73.168;2023-04-15T10:01:03;6.50;6.50;2.75
73825;PMS5003;64145;55.060;73.168;2023-04-15T10:03:30;2.00;2.00;0.00
73825;PMS5003;64145;55.060;73.168;2023-04-15T10:05:58;2.50;2.50;0.00
73825;PMS5003;64145;55.060;73.168;2023-04-15T10:08:27;0.00;0.00;0.00
73825;PMS5003;64145;55.060;73.168;2023-04-15T10:10:53;0.00;0.00;0.00
73825;PMS5003;64145;55.060;73.168;2023-04-15T10:13:22;0.00;0.00;0.00
73825;PMS5003;64145;55.060;73.168;2023-04-15T10:18:44;0.00;0.00;0.00
73825;PMS5003;64145;55.060;73.168;2023-04-15T10:21:09;0.00;0.00;0.00
73825;PMS5003;64145;55.060;73.168;2023-04-15T10:23:35;0.00;0.00;0.00
73825;PMS5003;64145;55.060;73.168;2023-04-15T10:26:03;2.00;2.00;0.00
73825;PMS5003;64145;55.060;73.168;2023-04-15T10:31:13;0.00;0.00;0.00
73825;PMS5003;64145;55.060;73.168;2023-04-15T10:33:43;1.00;1.00;0.00
73825;PMS5003;64145;55.060;73.168;2023-04-15T10:38:52;0.00;0.00;0.00
73825;PMS5003;64145;55.060;73.168;2023-04-15T10:41:22;0.00;0.00;0.00
73825;PMS5003;64145;55.060;73.168;2023-04-15T10:44:01;2.00;1.00;0.00
73825;PMS5003;64145;55.060;73.168;2023-04-15T10:49:05;1.25;1.00;0.00
73825;PMS5003;64145;55.060;73.168;2023-04-15T10:51:31;2.00;2.00;0.00
73825;PMS5003;64145;55.060;73.168;2023-04-15T10:54:36;2.00;2.00;0.00
73825;PMS5003;64145;55.060;73.168;2023-04-15T11:08:11;5.75;5.75;3.00
73825;PMS5003;64145;55.060;73.168;2023-04-15T11:13:23;10.00;9.00;5.00
73825;PMS5003;64145;55.060;73.168;2023-04-15T11:15:51;11.50;8.75;5.00
73825;PMS5003;64145;55.060;73.168;2023-04-15T11:18:23;6.00;4.00;2.00
73825;PMS5003;64145;55.060;73.168;2023-04-15T11:20:50;6.25;4.00;3.50
73825;PMS5003;64145;55.060;73.168;2023-04-15T11:23:28;5.00;4.00;3.00
73825;PMS5003;64145;55.060;73.168;2023-04-15T11:25:54;6.00;6.00;3.50
73825;PMS5003;64145;55.060;73.168;2023-04-15T11:28:24;7.00;4.00;3.00
73825;PMS5003;64145;55.060;73.168;2023-04-15T11:31:07;8.00;6.75;4.00
73825;PMS5003;64145;55.060;73.168;2023-04-15T11:33:34;3.00;3.00;1.00
73825;PMS5003;64145;55.060;73.168;2023-04-15T11:36:00;2.67;2.00;1.00
73825;PMS5003;64145;55.060;73.168;2023-04-15T11:38:26;4.00;4.00;1.00
73825;PMS5003;64145;55.060;73.168;2023-04-15T11:40:52;3.67;3.33;1.67
73825;PMS5003;64145;55.060;73.168;2023-04-15T11:43:19;3.00;2.00;0.00
73825;PMS5003;64145;55.060;73.168;2023-04-15T11:45:52;1.75;1.75;0.00
73825;PMS5003;64145;55.060;73.168;2023-04-15T11:48:18;8.25;7.00;3.25
73825;PMS5003;64145;55.060;73.168;2023-04-15T11:50:44;5.75;4.00;1.00
73825;PMS5003;64145;55.060;73.168;2023-04-15T11:53:41;2.00;2.00;0.00
73825;PMS5003;64145;55.060;73.168;2023-04-15T11:56:08;2.25;2.00;0.00
73825;PMS5003;64145;55.060;73.168;2023-04-15T11:59:03;1.00;1.00;0.00
73825;PMS5003;64145;55.060;73.168;2023-04-15T12:01:36;0.00;0.00;0.00
73825;PMS5003;64145;55.060;73.168;2023-04-15T12:04:13;0.00;0.00;0.00
73825;PMS5003;64145;55.060;73.168;2023-04-15T12:06:39;5.25;4.25;2.00
73825;PMS5003;64145;55.060;73.168;2023-04-15T12:11:35;0.00;0.00;0.00
73825;PMS5003;64145;55.060;73.168;2023-04-15T12:16:52;0.00;0.00;0.00
73825;PMS5003;64145;55.060;73.168;2023-04-15T12:19:28;0.00;0.00;0.00
73825;PMS5003;64145;55.060;73.168;2023-04-15T12:21:57;0.00;0.00;0.00
73825;PMS5003;64145;55.060;73.168;2023-04-15T12:24:26;0.00;0.00;0.00
73825;PMS5003;64145;55.060;73.168;2023-04-15T12:26:53;0.00;0.00;0.00
73825;PMS5003;64145;55.060;73.168;2023-04-15T12:29:19;0.00;0.00;0.00
73825;PMS5003;64145;55.060;73.168;2023-04-15T12:31:46;0.00;0.00;0.00
73825;PMS5003;64145;55.060;73.168;2023-04-15T12:34:13;0.00;0.00;0.00
73825;PMS5003;64145;55.060;73.168;2023-04-15T12:36:38;0.00;0.00;0.00
73825;PMS5003;64145;55.060;73.168;2023-04-15T12:39:10;0.00;0.00;0.00
73825;PMS5003;64145;55.060;73.168;2023-04-15T12:41:44;0.00;0.00;0.00
73825;PMS5003;64145;55.060;73.168;2023-04-15T12:44:09;0.00;0.00;0.00
73825;PMS5003;64145;55.060;73.168;2023-04-15T12:46:35;0.00;0.00;0.00
73825;PMS5003;64145;55.060;73.168;2023-04-15T12:51:46;0.00;0.00;0.00
73825;PMS5003;64145;55.060;73.168;2023-04-15T12:54:12;0.25;0.25;0.00
73825;PMS5003;64145;55.060;73.168;2023-04-15T12:56:38;0.00;0.00;0.00
73825;PMS5003;64145;55.060;73.168;2023-04-15T12:59:14;1.00;0.00;0.00
73825;PMS5003;64145;55.060;73.168;2023-04-15T13:01:40;0.00;0.00;0.00
73825;PMS5003;64145;55.060;73.168;2023-04-15T13:04:06;0.00;0.00;0.00
73825;PMS5003;64145;55.060;73.168;2023-04-15T13:06:34;0.00;0.00;0.00
73825;PMS5003;64145;55.060;73.168;2023-04-15T13:09:04;3.00;2.50;0.00
73825;PMS5003;64145;55.060;73.168;2023-04-15T13:11:33;2.00;2.00;0.00
73825;PMS5003;64145;55.060;73.168;2023-04-15T13:14:00;7.50;7.00;3.00
73825;PMS5003;64145;55.060;73.168;2023-04-15T13:16:32;1.00;0.25;0.00
73825;PMS5003;64145;55.060;73.168;2023-04-15T13:19:08;8.25;6.75;3.50
73825;PMS5003;64145;55.060;73.168;2023-04-15T13:21:40;20.00;16.00;8.75
73825;PMS5003;64145;55.060;73.168;2023-04-15T13:24:05;15.00;14.67;6.33
73825;PMS5003;64145;55.060;73.168;2023-04-15T13:26:31;5.00;4.00;1.33
73825;PMS5003;64145;55.060;73.168;2023-04-15T13:28:57;4.50;4.50;1.00
73825;PMS5003;64145;55.060;73.168;2023-04-15T13:31:40;7.00;6.75;4.50
73825;PMS5003;64145;55.060;73.168;2023-04-15T13:34:06;7.00;7.00;3.00
73825;PMS5003;64145;55.060;73.168;2023-04-15T13:36:31;4.00;3.00;2.00
73825;PMS5003;64145;55.060;73.168;2023-04-15T13:39:25;3.50;3.00;2.50
73825;PMS5003;64145;55.060;73.168;2023-04-15T13:41:51;4.00;4.00;3.00
73825;PMS5003;64145;55.060;73.168;2023-04-15T13:44:17;6.00;6.00;3.50
73825;PMS5003;64145;55.060;73.168;2023-04-15T13:46:52;8.50;8.00;5.00
73825;PMS5003;64145;55.060;73.168;2023-04-15T13:49:22;12.50;11.00;6.00
73825;PMS5003;64145;55.060;73.168;2023-04-15T13:51:48;14.00;14.00;6.00
73825;PMS5003;64145;55.060;73.168;2023-04-15T13:54:13;6.00;4.67;1.00
73825;PMS5003;64145;55.060;73.168;2023-04-15T13:59:33;2.00;2.00;0.00
73825;PMS5003;64145;55.060;73.168;2023-04-15T14:04:43;0.00;0.00;0.00
73825;PMS5003;64145;55.060;73.168;2023-04-15T14:07:13;1.00;1.00;0.00
73825;PMS5003;64145;55.060;73.168;2023-04-15T14:09:49;4.50;3.00;0.50
73825;PMS5003;64145;55.060;73.168;2023-04-15T14:12:14;7.00;6.00;3.00
73825;PMS5003;64145;55.060;73.168;2023-04-15T14:14:50;3.00;3.00;0.25
73825;PMS5003;64145;55.060;73.168;2023-04-15T14:20:00;14.00;11.50;6.50
73825;PMS5003;64145;55.060;73.168;2023-04-15T14:22:30;24.50;19.25;10.75
73825;PMS5003;64145;55.060;73.168;2023-04-15T14:25:06;23.00;18.00;12.00
73825;PMS5003;64145;55.060;73.168;2023-04-15T14:27:32;20.00;17.00;8.00
73825;PMS5003;64145;55.060;73.168;2023-04-15T14:29:57;17.67;16.00;7.67
73825;PMS5003;64145;55.060;73.168;2023-04-15T14:32:24;20.33;19.33;10.00
73825;PMS5003;64145;55.060;73.168;2023-04-15T14:34:49;30.50;24.75;15.25
73825;PMS5003;64145;55.060;73.168;2023-04-15T14:37:15;34.00;26.00;17.00
73825;PMS5003;64145;55.060;73.168;2023-04-15T14:39:46;30.00;25.00;16.50
73825;PMS5003;64145;55.060;73.168;2023-04-15T14:42:12;29.00;24.00;16.00
73825;PMS5003;64145;55.060;73.168;2023-04-15T14:44:38;24.00;22.00;14.00
73825;PMS5003;64145;55.060;73.168;2023-04-15T14:47:04;30.33;26.33;16.67
73825;PMS5003;64145;55.060;73.168;2023-04-15T14:49:30;37.50;30.50;20.50
73825;PMS5003;64145;55.060;73.168;2023-04-15T14:52:00;42.50;34.00;21.25
73825;PMS5003;64145;55.060;73.168;2023-04-15T14:54:31;42.00;33.50;21.75
73825;PMS5003;64145;55.060;73.168;2023-04-15T14:56:57;38.00;31.00;20.00
73825;PMS5003;64145;55.060;73.168;2023-04-15T14:59:32;37.50;30.50;20.00
73825;PMS5003;64145;55.060;73.168;2023-04-15T15:01:58;32.67;27.00;18.00
73825;PMS5003;64145;55.060;73.168;2023-04-15T15:04:24;28.00;24.00;16.33
73825;PMS5003;64145;55.060;73.168;2023-04-15T15:06:49;26.33;23.00;16.00
73825;PMS5003;64145;55.060;73.168;2023-04-15T15:09:15;28.00;24.33;16.00
73825;PMS5003;64145;55.060;73.168;2023-04-15T15:11:46;43.50;34.25;21.25
73825;PMS5003;64145;55.060;73.168;2023-04-15T15:14:11;51.00;39.00;24.00
73825;PMS5003;64145;55.060;73.168;2023-04-15T15:16:37;44.00;36.00;22.67
73825;PMS5003;64145;55.060;73.168;2023-04-15T15:21:47;43.75;35.25;22.00
73825;PMS5003;64145;55.060;73.168;2023-04-15T15:24:18;41.50;34.00;21.00
73825;PMS5003;64145;55.060;73.168;2023-04-15T15:26:43;39.67;32.00;20.00
73825;PMS5003;64145;55.060;73.168;2023-04-15T15:29:09;37.00;29.33;19.33
73825;PMS5003;64145;55.060;73.168;2023-04-15T15:31:53;35.50;28.75;18.00
73825;PMS5003;64145;55.060;73.168;2023-04-15T15:34:37;39.00;32.50;20.25
73825;PMS5003;64145;55.060;73.168;2023-04-15T15:37:21;41.50;33.00;21.00
73825;PMS5003;64145;55.060;73.168;2023-04-15T15:40:05;36.25;29.00;19.00
73825;PMS5003;64145;55.060;73.168;2023-04-15T15:45:34;39.00;31.50;21.00
73825;PMS5003;64145;55.060;73.168;2023-04-15T15:48:04;35.25;29.00;19.00
73825;PMS5003;64145;55.060;73.168;2023-04-15T15:50:35;31.50;26.00;17.00
73825;PMS5003;64145;55.060;73.168;2023-04-15T15:53:05;29.00;24.00;15.50
73825;PMS5003;64145;55.060;73.168;2023-04-15T15:55:31;25.00;22.33;15.00
73825;PMS5003;64145;55.060;73.168;2023-04-15T15:57:56;25.33;22.00;14.00
73825;PMS5003;64145;55.060;73.168;2023-04-15T16:00:32;30.00;25.00;15.75
73825;PMS5003;64145;55.060;73.168;2023-04-15T16:03:07;32.00;26.00;17.00
73825;PMS5003;64145;55.060;73.168;2023-04-15T16:05:34;29.00;25.00;16.33
73825;PMS5003;64145;55.060;73.168;2023-04-15T16:07:59;28.00;24.00;16.00
73825;PMS5003;64145;55.060;73.168;2023-04-15T16:10:25;25.00;22.00;15.00
73825;PMS5003;64145;55.060;73.168;2023-04-15T16:12:50;33.00;26.00;17.00
73825;PMS5003;64145;55.060;73.168;2023-04-15T16:15:23;34.50;26.25;17.00
73825;PMS5003;64145;55.060;73.168;2023-04-15T16:17:59;33.50;27.00;17.00